Aeroporto :
LOGIN :

Iscrizione | Disclaimer

   EN    FR    IT 

 










Sommario :    VFR   VFR Marginale   IFR   IFR Intensivo   IFR Molto Intensivo
Visibilità : 
Base nubi : 
>= 8 km
>= 3000ft
5 / 8 km
1000 / 3000 ft
1500m / 5 km
500 / 1000 ft
800 / 1500m
200 / 500 ft
< 800m
< 200 ft
Simboli :   Temporali  Nebbia  Neve Forte  Precipitazioni Forti  Vento > 20 kt
SIGMETs :   Varie  Temporali  Ghiacco  Turbolenza  Onda orograficha  Ceneri Vulcaniche







- Altitudine del aeroporto : 313 ft
- Carte del aeroporto


LFQA - Reims-Prunay

ULTIMO METAR :
  • 161230Z AUTO 22006KT 170V250 9999 FEW041 BKN074 21/12 Q1021

METARs OBSOLETI :
  • 161200Z AUTO 23005KT 180V270 9999 BKN040 BKN052 BKN062 20/12 Q1021
  • 161130Z AUTO 26004KT 170V330 9999 SCT040 SCT047 OVC056 20/11 Q1021
  • 161100Z AUTO 23004KT 180V330 9999 FEW035 BKN045 OVC052 20/12 Q1022
  • 161030Z AUTO 20006KT 140V240 9999 SCT033 SCT050 20/12 Q1022
  • 161000Z AUTO 24005KT 210V290 9999 BKN032 BKN052 18/13 Q1022

TAF N/A
Nessun NOTAM noto per questo aeroporto.



MetMap, La meteo Aeronautica in un colpo d'occhio ! - Copyright ORBIFLY Dicembre 2007 - Disclaimer

ORBIFLY MET'MAP TEAM :

Programmazione e sviluppo : Alexandra Zaïnal
Concezione e sviluppo : Baudouin d'Aumeries
Co-Programmazione e sviluppo : Marc-Olivier Méhu
Supporto tecnico e logistico : Manuel Goepfert
Aiuto per la traduzione : Arnaldo La Scala

Contatto : metmap@orbifly.com




FONTI E CREDITI :

   NOAA